createdAt,value
2022-11-27T00:01:35.449Z,14.18
2022-11-27T00:04:03.159Z,12.93
2022-11-27T00:06:31.951Z,13.48
2022-11-27T00:09:02.033Z,17.15
2022-11-27T00:11:30.990Z,12.55
2022-11-27T00:13:59.805Z,13.82
2022-11-27T00:16:28.747Z,14.75
2022-11-27T00:18:58.528Z,14.60
2022-11-27T00:21:32.786Z,14.15
2022-11-27T00:24:02.974Z,13.07
2022-11-27T00:26:37.299Z,12.75
2022-11-27T00:29:06.565Z,15.07
2022-11-27T00:31:37.734Z,14.40
2022-11-27T00:34:09.019Z,14.23
2022-11-27T00:36:39.278Z,13.45
2022-11-27T00:39:07.674Z,12.35
2022-11-27T00:41:37.935Z,17.05
2022-11-27T00:44:05.840Z,17.38
2022-11-27T00:46:35.224Z,17.90
2022-11-27T00:49:05.569Z,18.05
2022-11-27T00:51:32.860Z,16.25
2022-11-27T00:54:00.268Z,13.80
2022-11-27T00:56:34.346Z,15.15
2022-11-27T00:59:04.271Z,13.23
2022-11-27T01:01:39.137Z,17.90
2022-11-27T01:04:11.037Z,16.38
2022-11-27T01:06:38.201Z,16.63
2022-11-27T01:09:06.461Z,18.25
2022-11-27T01:11:35.620Z,17.95
2022-11-27T01:14:09.273Z,14.98
2022-11-27T01:16:42.705Z,19.05
2022-11-27T01:19:12.770Z,16.15
2022-11-27T01:21:39.988Z,15.07
2022-11-27T01:24:08.353Z,13.25
2022-11-27T01:26:37.776Z,14.45
2022-11-27T01:29:05.023Z,13.85
2022-11-27T01:31:34.456Z,12.93
2022-11-27T01:34:05.668Z,12.63
2022-11-27T01:36:34.419Z,11.90
2022-11-27T01:39:03.321Z,12.82
2022-11-27T01:41:41.266Z,12.00
2022-11-27T01:44:23.613Z,13.43
2022-11-27T01:47:11.082Z,13.80
2022-11-27T01:49:45.370Z,12.60
2022-11-27T01:52:22.366Z,13.35
2022-11-27T01:55:21.399Z,12.32
2022-11-27T01:58:02.193Z,13.10
2022-11-27T02:00:29.896Z,16.80
2022-11-27T02:02:56.853Z,14.27
2022-11-27T02:05:28.689Z,16.50
2022-11-27T02:08:10.105Z,15.98
2022-11-27T02:11:13.254Z,18.42
2022-11-27T02:14:10.082Z,19.35
2022-11-27T02:16:57.441Z,19.38
2022-11-27T02:20:13.823Z,14.50
2022-11-27T02:23:12.613Z,14.13
2022-11-27T02:25:54.487Z,14.90
2022-11-27T02:29:06.505Z,13.00
2022-11-27T02:31:57.504Z,12.88
2022-11-27T02:34:52.317Z,13.25
2022-11-27T02:37:34.388Z,14.80
2022-11-27T02:40:13.036Z,16.08
2022-11-27T02:42:51.169Z,15.13
2022-11-27T02:45:26.988Z,15.85
2022-11-27T02:47:58.673Z,14.75
2022-11-27T02:50:34.259Z,15.23
2022-11-27T02:53:07.338Z,15.43
2022-11-27T02:55:38.317Z,16.35
2022-11-27T02:58:16.231Z,14.25
2022-11-27T03:00:47.264Z,15.52
2022-11-27T03:03:21.777Z,15.20
2022-11-27T03:05:56.914Z,14.25
2022-11-27T03:08:40.078Z,14.98
2022-11-27T03:11:13.726Z,14.73
2022-11-27T03:13:47.865Z,14.77
2022-11-27T03:16:59.957Z,14.20
2022-11-27T03:19:36.339Z,19.20
2022-11-27T03:22:05.226Z,17.05
2022-11-27T03:24:35.713Z,16.95
2022-11-27T03:27:06.697Z,16.23
2022-11-27T03:29:47.156Z,14.57
2022-11-27T03:32:15.113Z,15.65
2022-11-27T03:34:43.307Z,17.48
2022-11-27T03:37:10.619Z,16.15
2022-11-27T03:39:37.582Z,17.60
2022-11-27T03:42:22.777Z,16.95
2022-11-27T03:45:08.029Z,16.80
2022-11-27T03:47:53.404Z,16.58
2022-11-27T03:51:01.535Z,14.60
2022-11-27T03:54:00.413Z,14.23
2022-11-27T03:56:38.123Z,14.25
2022-11-27T03:59:27.679Z,15.13
2022-11-27T04:01:54.619Z,16.80
2022-11-27T04:04:21.930Z,16.05
2022-11-27T04:06:48.833Z,14.80
2022-11-27T04:09:15.929Z,14.93
2022-11-27T04:11:42.746Z,16.23
2022-11-27T04:14:12.392Z,15.25
2022-11-27T04:16:41.123Z,15.10
2022-11-27T04:19:10.358Z,15.73
2022-11-27T04:21:37.193Z,14.70
2022-11-27T04:24:05.652Z,14.68
2022-11-27T04:26:32.484Z,14.52
2022-11-27T04:28:59.638Z,15.05
2022-11-27T04:31:29.001Z,15.02
2022-11-27T04:33:56.139Z,14.70
2022-11-27T04:36:22.933Z,15.93
2022-11-27T04:38:50.019Z,15.25
2022-11-27T04:41:16.919Z,16.13
2022-11-27T04:43:44.198Z,14.85
2022-11-27T04:46:11.024Z,14.52
2022-11-27T04:48:38.144Z,14.88
2022-11-27T04:51:05.124Z,13.77
2022-11-27T04:53:34.273Z,14.20
2022-11-27T04:56:01.283Z,15.73
2022-11-27T04:58:28.602Z,15.35
2022-11-27T05:00:55.526Z,14.98
2022-11-27T05:03:22.756Z,14.57
2022-11-27T05:06:02.031Z,13.70
2022-11-27T05:08:32.024Z,14.50
2022-11-27T05:11:05.805Z,12.82
2022-11-27T05:13:36.070Z,13.93
2022-11-27T05:16:07.039Z,13.98
2022-11-27T05:18:35.100Z,14.40
2022-11-27T05:21:08.278Z,13.25
2022-11-27T05:23:35.592Z,13.98
2022-11-27T05:26:03.609Z,14.00
2022-11-27T05:28:30.763Z,13.73
2022-11-27T05:30:57.721Z,12.35
2022-11-27T05:33:24.889Z,12.32
2022-11-27T05:35:51.709Z,13.82
2022-11-27T05:38:18.717Z,12.85
2022-11-27T05:40:47.373Z,13.73
2022-11-27T05:43:14.390Z,12.90
2022-11-27T05:45:41.220Z,13.35
2022-11-27T05:48:08.386Z,13.73
2022-11-27T05:50:35.299Z,12.00
2022-11-27T05:53:02.346Z,12.25
2022-11-27T05:55:29.187Z,12.38
2022-11-27T05:57:56.264Z,12.55
2022-11-27T06:00:27.002Z,13.85
2022-11-27T06:02:56.961Z,13.13
2022-11-27T06:05:28.276Z,13.27
2022-11-27T06:07:55.385Z,13.18
2022-11-27T06:10:22.301Z,13.43
2022-11-27T06:12:49.421Z,11.45
2022-11-27T06:15:16.387Z,12.85
2022-11-27T06:17:43.464Z,13.57
2022-11-27T06:20:10.506Z,13.23
2022-11-27T06:22:40.305Z,13.55
2022-11-27T06:25:07.569Z,13.07
2022-11-27T06:27:36.050Z,12.93
2022-11-27T06:30:05.243Z,13.20
2022-11-27T06:32:32.369Z,13.82
2022-11-27T06:34:59.316Z,14.32
2022-11-27T06:37:26.508Z,12.52
2022-11-27T06:39:56.360Z,13.55
2022-11-27T06:42:23.467Z,12.05
2022-11-27T06:44:50.297Z,12.65
2022-11-27T06:47:17.411Z,13.88
2022-11-27T06:49:46.610Z,12.52
2022-11-27T06:52:15.834Z,12.38
2022-11-27T06:54:44.536Z,14.10
2022-11-27T06:57:13.497Z,13.07
2022-11-27T06:59:40.313Z,13.77
2022-11-27T07:02:15.013Z,12.32
2022-11-27T07:04:42.544Z,12.70
2022-11-27T07:07:10.225Z,13.45
2022-11-27T07:09:37.054Z,12.50
2022-11-27T07:12:06.027Z,12.65
2022-11-27T07:14:32.850Z,13.02
2022-11-27T07:16:59.952Z,12.48
2022-11-27T07:19:26.723Z,12.25
2022-11-27T07:21:53.814Z,12.23
2022-11-27T07:24:20.984Z,12.55
2022-11-27T07:26:48.171Z,11.95
2022-11-27T07:29:15.140Z,12.98
2022-11-27T07:31:42.611Z,12.48
2022-11-27T07:34:14.943Z,10.85
2022-11-27T07:36:43.351Z,11.88
2022-11-27T07:39:10.102Z,12.75
2022-11-27T07:41:37.148Z,11.77
2022-11-27T07:44:04.195Z,13.93
2022-11-27T07:46:33.952Z,13.27
2022-11-27T07:49:01.331Z,11.45
2022-11-27T07:51:28.767Z,11.00
2022-11-27T07:53:55.749Z,11.50
2022-11-27T07:56:23.072Z,12.02
2022-11-27T07:58:49.991Z,12.35
2022-11-27T08:01:22.404Z,11.85
2022-11-27T08:03:49.752Z,10.55
2022-11-27T08:06:24.334Z,11.98
2022-11-27T08:08:52.383Z,12.35
2022-11-27T08:11:25.515Z,12.35
2022-11-27T08:13:59.628Z,11.57
2022-11-27T08:16:31.120Z,12.18
2022-11-27T08:18:58.548Z,13.13
2022-11-27T08:21:27.011Z,14.45
2022-11-27T08:23:55.098Z,13.23
2022-11-27T08:26:22.180Z,12.77
2022-11-27T08:28:52.661Z,13.57
2022-11-27T08:31:21.012Z,12.77
2022-11-27T08:33:48.070Z,13.63
2022-11-27T08:36:18.254Z,11.68
2022-11-27T08:38:46.984Z,12.68
2022-11-27T08:41:14.463Z,12.20
2022-11-27T08:43:41.507Z,12.70
2022-11-27T08:46:08.776Z,12.75
2022-11-27T08:48:38.847Z,14.57
2022-11-27T08:51:09.893Z,12.48
2022-11-27T08:53:37.852Z,12.55
2022-11-27T08:56:21.704Z,12.02
2022-11-27T08:58:49.344Z,12.23
2022-11-27T09:01:24.610Z,12.05
2022-11-27T09:03:53.021Z,12.60
2022-11-27T09:06:25.683Z,12.55
2022-11-27T09:08:52.965Z,12.45
2022-11-27T09:11:21.310Z,12.50
2022-11-27T09:13:49.897Z,13.95
2022-11-27T09:16:21.622Z,14.43
2022-11-27T09:18:51.659Z,12.25
2022-11-27T09:21:22.743Z,13.95
2022-11-27T09:23:58.279Z,15.52
2022-11-27T09:26:27.601Z,16.38
2022-11-27T09:28:57.374Z,14.95
2022-11-27T09:31:25.990Z,16.42
2022-11-27T09:33:53.098Z,14.95
2022-11-27T09:36:24.276Z,14.90
2022-11-27T09:38:52.350Z,15.52
2022-11-27T09:41:45.723Z,15.88
2022-11-27T09:44:40.263Z,15.65
2022-11-27T09:47:26.221Z,15.75
2022-11-27T09:50:13.201Z,15.88
2022-11-27T09:52:50.102Z,16.65
2022-11-27T09:55:24.943Z,16.80
2022-11-27T09:58:05.923Z,15.60
2022-11-27T10:00:34.742Z,15.30
2022-11-27T10:03:02.174Z,15.98
2022-11-27T10:05:43.335Z,15.38
2022-11-27T10:08:50.688Z,17.35
2022-11-27T10:11:30.842Z,15.57
2022-11-27T10:14:46.387Z,15.90
2022-11-27T10:17:26.539Z,17.75
2022-11-27T10:20:16.004Z,18.15
2022-11-27T10:23:02.866Z,17.15
2022-11-27T10:25:42.969Z,15.18
2022-11-27T10:28:34.767Z,15.75
2022-11-27T10:31:25.058Z,15.32
2022-11-27T10:34:01.442Z,17.20
2022-11-27T10:39:04.559Z,16.35
2022-11-27T10:41:53.201Z,15.57
2022-11-27T10:44:41.157Z,17.42
2022-11-27T10:47:13.487Z,17.33
2022-11-27T10:49:44.212Z,16.38
2022-11-27T10:52:15.223Z,17.60
2022-11-27T10:54:45.719Z,17.13
2022-11-27T10:57:53.490Z,18.08
2022-11-27T11:00:24.994Z,17.60
2022-11-27T11:03:04.579Z,18.00
2022-11-27T11:06:17.780Z,18.27
2022-11-27T11:08:21.935Z,17.77
2022-11-27T11:10:57.816Z,16.23
2022-11-27T11:13:28.713Z,16.52
2022-11-27T11:16:14.514Z,17.92
2022-11-27T11:18:46.477Z,16.98
2022-11-27T11:21:28.929Z,18.88
2022-11-27T11:24:02.029Z,16.38
2022-11-27T11:26:34.070Z,17.02
2022-11-27T11:29:16.584Z,17.23
2022-11-27T11:31:44.849Z,15.40
2022-11-27T11:34:30.143Z,14.88
2022-11-27T11:37:02.835Z,16.10
2022-11-27T11:39:44.500Z,16.83
2022-11-27T11:42:22.067Z,16.90
2022-11-27T11:45:01.335Z,18.17
2022-11-27T11:47:29.021Z,18.45
2022-11-27T11:49:57.439Z,17.75
2022-11-27T11:53:07.283Z,17.63
2022-11-27T11:55:42.947Z,18.48
2022-11-27T11:58:11.205Z,18.35
2022-11-27T12:01:18.919Z,17.50
2022-11-27T12:04:12.684Z,15.93
2022-11-27T12:07:10.597Z,17.55
2022-11-27T12:09:56.674Z,16.88
2022-11-27T12:12:55.057Z,16.38
2022-11-27T12:15:45.336Z,17.98
2022-11-27T12:18:38.196Z,18.13
2022-11-27T12:21:15.516Z,17.35
2022-11-27T12:24:21.843Z,16.77
2022-11-27T12:30:20.392Z,16.40
2022-11-27T12:33:19.286Z,15.85
2022-11-27T12:36:08.759Z,15.90
2022-11-27T12:38:47.559Z,15.77
2022-11-27T12:41:28.914Z,15.23
2022-11-27T12:44:00.272Z,16.45
2022-11-27T12:46:44.032Z,14.85
2022-11-27T12:49:51.831Z,19.13
2022-11-27T12:52:44.635Z,16.92
2022-11-27T12:55:26.707Z,15.52
2022-11-27T12:58:26.981Z,15.07
2022-11-27T13:01:07.980Z,18.05
2022-11-27T13:03:56.836Z,18.58
2022-11-27T13:06:34.916Z,17.80
2022-11-27T13:09:21.082Z,17.75
2022-11-27T13:11:48.342Z,18.70
2022-11-27T13:14:28.106Z,17.83
2022-11-27T13:17:06.102Z,19.13
2022-11-27T13:19:44.137Z,17.77
2022-11-27T13:22:28.578Z,19.58
2022-11-27T13:25:00.147Z,18.42
2022-11-27T13:27:31.904Z,17.67
2022-11-27T13:30:09.163Z,18.70
2022-11-27T13:32:52.442Z,18.08
2022-11-27T13:35:28.496Z,18.40
2022-11-27T13:38:08.029Z,18.08
2022-11-27T13:40:46.609Z,17.00
2022-11-27T13:43:41.336Z,15.48
2022-11-27T13:46:20.038Z,15.57
2022-11-27T13:49:00.748Z,15.68
2022-11-27T13:51:35.318Z,15.43
2022-11-27T13:54:12.644Z,16.40
2022-11-27T13:56:40.936Z,15.55
2022-11-27T13:59:25.011Z,15.32
2022-11-27T14:02:03.438Z,15.67
2022-11-27T14:04:34.101Z,15.38
2022-11-27T14:07:07.175Z,16.90
2022-11-27T14:09:56.312Z,18.15
2022-11-27T14:12:32.068Z,16.00
2022-11-27T14:15:17.057Z,17.40
2022-11-27T14:17:48.388Z,17.52
2022-11-27T14:20:18.070Z,16.23
2022-11-27T14:23:11.921Z,17.30
2022-11-27T14:25:41.348Z,18.73
2022-11-27T14:28:26.443Z,16.55
2022-11-27T14:30:57.036Z,22.08
2022-11-27T14:33:47.345Z,19.13
2022-11-27T14:36:30.907Z,17.52
2022-11-27T14:38:59.382Z,18.83
2022-11-27T14:41:28.974Z,17.50
2022-11-27T14:44:05.965Z,18.67
2022-11-27T14:46:37.600Z,17.65
2022-11-27T14:49:07.467Z,20.52
2022-11-27T14:51:37.454Z,18.83
2022-11-27T14:54:18.753Z,23.58
2022-11-27T14:56:46.281Z,20.10
2022-11-27T14:59:21.063Z,19.35
2022-11-27T15:02:13.955Z,19.70
2022-11-27T15:04:43.755Z,20.00
2022-11-27T15:07:27.179Z,19.13
2022-11-27T15:09:58.514Z,18.17
2022-11-27T15:12:33.608Z,20.48
2022-11-27T15:15:20.716Z,22.02
2022-11-27T15:17:56.467Z,20.58
2022-11-27T15:20:35.628Z,22.77
2022-11-27T15:23:03.591Z,19.35
2022-11-27T15:25:39.548Z,20.98
2022-11-27T15:28:57.392Z,21.40
2022-11-27T15:31:31.154Z,21.05
2022-11-27T15:34:26.730Z,22.85
2022-11-27T15:39:49.639Z,21.42
2022-11-27T15:42:17.665Z,22.83
2022-11-27T15:44:46.276Z,20.52
2022-11-27T15:47:34.957Z,20.20
2022-11-27T15:50:02.429Z,22.85
2022-11-27T15:52:30.688Z,21.85
2022-11-27T15:54:57.998Z,23.58
2022-11-27T15:57:26.373Z,22.33
2022-11-27T15:59:55.695Z,23.67
2022-11-27T16:02:28.389Z,23.27
2022-11-27T16:04:57.928Z,22.95
2022-11-27T16:07:25.041Z,21.92
2022-11-27T16:09:51.876Z,21.52
2022-11-27T16:12:20.918Z,23.10
2022-11-27T16:14:48.920Z,24.52
2022-11-27T16:17:18.086Z,23.35
2022-11-27T16:19:44.989Z,22.65
2022-11-27T16:22:12.162Z,23.40
2022-11-27T16:24:43.165Z,21.77
2022-11-27T16:27:13.412Z,23.45
2022-11-27T16:29:42.172Z,22.83
2022-11-27T16:32:09.645Z,22.60
2022-11-27T16:34:37.104Z,22.10
2022-11-27T16:37:04.588Z,22.98
2022-11-27T16:39:31.963Z,22.95
2022-11-27T16:41:59.943Z,23.70
2022-11-27T16:44:27.509Z,23.55
2022-11-27T16:46:55.798Z,22.08
2022-11-27T16:49:23.368Z,24.38
2022-11-27T16:51:51.065Z,25.30
2022-11-27T16:54:18.209Z,24.33
2022-11-27T16:56:45.590Z,24.80
2022-11-27T16:59:15.990Z,24.75
2022-11-27T17:01:44.501Z,24.88
2022-11-27T17:04:19.544Z,24.35
2022-11-27T17:06:49.449Z,26.50
2022-11-27T17:09:17.468Z,26.27
2022-11-27T17:11:48.911Z,25.92
2022-11-27T17:14:16.794Z,26.17
2022-11-27T17:16:45.224Z,27.48
2022-11-27T17:19:14.300Z,29.30
2022-11-27T17:21:42.387Z,30.35
2022-11-27T17:24:16.305Z,28.30
2022-11-27T17:26:45.622Z,28.20
2022-11-27T17:29:17.091Z,28.63
2022-11-27T17:31:44.666Z,27.00
2022-11-27T17:34:14.771Z,24.60
2022-11-27T17:36:45.026Z,25.73
2022-11-27T17:39:14.504Z,25.38
2022-11-27T17:41:44.876Z,27.10
2022-11-27T17:44:13.671Z,24.05
2022-11-27T17:46:41.218Z,22.90
2022-11-27T17:49:08.696Z,24.02
2022-11-27T17:51:37.770Z,25.08
2022-11-27T17:54:06.099Z,24.80
2022-11-27T17:56:34.729Z,23.75
2022-11-27T17:59:02.114Z,25.77
2022-11-27T18:01:30.385Z,28.50
2022-11-27T18:04:00.980Z,27.13
2022-11-27T18:06:28.302Z,25.63
2022-11-27T18:08:57.487Z,26.23
2022-11-27T18:11:31.422Z,26.45
2022-11-27T18:13:58.801Z,26.08
2022-11-27T18:16:33.763Z,26.30
2022-11-27T18:19:06.895Z,22.75
2022-11-27T18:21:36.164Z,27.30
2022-11-27T18:27:11.354Z,22.85
2022-11-27T18:29:41.715Z,26.85
2022-11-27T18:32:09.762Z,30.83
2022-11-27T18:34:37.046Z,30.30
2022-11-27T18:37:05.342Z,27.42
2022-11-27T18:39:33.339Z,31.20
2022-11-27T18:42:00.245Z,32.00
2022-11-27T18:44:27.512Z,27.95
2022-11-27T18:46:54.847Z,28.67
2022-11-27T18:49:23.339Z,25.85
2022-11-27T18:51:52.192Z,26.67
2022-11-27T18:54:20.727Z,26.90
2022-11-27T18:56:47.654Z,25.50
2022-11-27T18:59:14.934Z,25.45
2022-11-27T19:01:42.872Z,25.63
2022-11-27T19:04:11.903Z,25.73
2022-11-27T19:06:42.243Z,23.77
2022-11-27T19:09:12.410Z,24.98
2022-11-27T19:11:40.807Z,22.15
2022-11-27T19:14:09.274Z,23.80
2022-11-27T19:16:46.090Z,23.25
2022-11-27T19:22:07.774Z,24.58
2022-11-27T19:24:35.268Z,23.90
2022-11-27T19:27:02.177Z,22.35
2022-11-27T19:29:29.412Z,24.77
2022-11-27T19:31:58.970Z,23.38
2022-11-27T19:34:26.372Z,20.77
2022-11-27T19:36:53.253Z,22.08
2022-11-27T19:39:20.531Z,22.25
2022-11-27T19:41:47.681Z,22.42
2022-11-27T19:44:15.703Z,24.70
2022-11-27T19:46:44.647Z,22.77
2022-11-27T19:49:17.982Z,23.40
2022-11-27T19:51:46.025Z,22.10
2022-11-27T19:54:14.659Z,22.92
2022-11-27T19:56:42.631Z,22.08
2022-11-27T19:59:12.591Z,30.48
2022-11-27T20:01:40.842Z,23.38
2022-11-27T20:04:11.623Z,23.02
2022-11-27T20:06:39.586Z,21.48
2022-11-27T20:09:07.216Z,21.60
2022-11-27T20:11:38.287Z,22.48
2022-11-27T20:14:07.008Z,21.45
2022-11-27T20:16:36.336Z,20.88
2022-11-27T20:19:06.297Z,24.60
2022-11-27T20:21:34.765Z,22.60
2022-11-27T20:24:02.153Z,24.92
2022-11-27T20:26:30.687Z,24.35
2022-11-27T20:28:58.398Z,22.73
2022-11-27T20:31:32.635Z,21.63
2022-11-27T20:34:04.899Z,23.10
2022-11-27T20:36:35.038Z,22.38
2022-11-27T20:39:02.824Z,20.65
2022-11-27T20:41:30.628Z,20.77
2022-11-27T20:44:01.451Z,21.65
2022-11-27T20:46:30.283Z,21.33
2022-11-27T20:48:58.012Z,21.33
2022-11-27T20:51:30.864Z,22.58
2022-11-27T20:54:00.099Z,20.90
2022-11-27T20:56:29.283Z,20.08
2022-11-27T20:58:57.339Z,21.65
2022-11-27T21:01:34.874Z,20.08
2022-11-27T21:04:09.608Z,19.65
2022-11-27T21:09:12.323Z,18.85
2022-11-27T21:11:40.434Z,20.65
2022-11-27T21:14:10.540Z,17.65
2022-11-27T21:16:46.065Z,19.73
2022-11-27T21:19:20.697Z,21.90
2022-11-27T21:21:48.902Z,19.80
2022-11-27T21:24:17.447Z,20.90
2022-11-27T21:26:45.208Z,21.92
2022-11-27T21:29:13.473Z,23.80
2022-11-27T21:31:46.155Z,23.20
2022-11-27T21:34:14.590Z,23.95
2022-11-27T21:36:41.966Z,23.88
2022-11-27T21:39:12.671Z,23.15
2022-11-27T21:41:40.001Z,22.02
2022-11-27T21:44:06.993Z,23.33
2022-11-27T21:46:35.004Z,21.83
2022-11-27T21:49:02.247Z,20.27
2022-11-27T21:51:30.352Z,22.58
2022-11-27T21:53:59.500Z,22.63
2022-11-27T21:56:29.152Z,23.02
2022-11-27T21:58:56.337Z,28.85
2022-11-27T22:01:25.927Z,22.67
2022-11-27T22:03:57.461Z,22.38
2022-11-27T22:06:29.377Z,25.67
2022-11-27T22:08:58.937Z,22.60
2022-11-27T22:11:30.825Z,23.65
2022-11-27T22:14:01.407Z,20.92
2022-11-27T22:16:32.372Z,21.25
2022-11-27T22:19:00.626Z,20.50
2022-11-27T22:21:30.272Z,20.35
2022-11-27T22:23:58.102Z,23.25
2022-11-27T22:26:25.995Z,20.75
2022-11-27T22:28:53.352Z,19.80
2022-11-27T22:31:29.964Z,18.80
2022-11-27T22:33:57.938Z,17.20
2022-11-27T22:36:32.196Z,18.85
2022-11-27T22:39:03.023Z,18.95
2022-11-27T22:41:34.543Z,20.42
2022-11-27T22:44:15.834Z,22.50
2022-11-27T22:46:44.858Z,18.77
2022-11-27T22:49:16.618Z,20.05
2022-11-27T22:51:44.633Z,19.38
2022-11-27T22:54:17.089Z,20.60
2022-11-27T22:56:45.890Z,20.00
2022-11-27T23:02:01.281Z,22.02
2022-11-27T23:04:28.341Z,19.83
2022-11-27T23:06:55.566Z,21.83
2022-11-27T23:09:22.480Z,23.17
2022-11-27T23:11:50.267Z,23.52
2022-11-27T23:14:17.799Z,21.92
2022-11-27T23:16:45.441Z,20.52
2022-11-27T23:19:12.513Z,20.25
2022-11-27T23:21:40.348Z,20.95
2022-11-27T23:24:11.749Z,22.88
2022-11-27T23:26:39.035Z,22.70
2022-11-27T23:29:05.956Z,20.92
2022-11-27T23:31:35.586Z,22.58
2022-11-27T23:34:07.545Z,22.20
2022-11-27T23:36:35.795Z,21.15
2022-11-27T23:39:07.251Z,21.55
2022-11-27T23:41:34.780Z,21.05
2022-11-27T23:44:02.275Z,21.38
2022-11-27T23:46:30.544Z,21.15
2022-11-27T23:49:00.189Z,21.92
2022-11-27T23:51:31.636Z,21.02
2022-11-27T23:54:00.194Z,22.33
2022-11-27T23:56:31.346Z,21.63
2022-11-27T23:58:59.323Z,20.60
